Observations for Trim Patrick St
| Time | AQI | Temp °C | Hum % | Pres Pa | CO μg/m³ | H₂S μg/m³ | NO μg/m³ | NO₂ μg/m³ | O₃ μg/m³ | SO₂ μg/m³ | PM1 μg/m³ | PM2.5 μg/m³ | PM10 μg/m³ |
|---|---|---|---|---|---|---|---|---|---|---|---|---|---|
| Saturday 1 August 2026 | |||||||||||||
| 20:28 | 3 | 22.9 | 42 | 68,865 | 0 | 20.04 | 0.88 | 31.83 | 59.8 | 10.26 | 3.71 | 9.24 | 10.17 |
| 20:27 | 3 | 23 | 42 | 68,882 | 0 | 20.67 | 0.92 | 37.16 | 61.89 | 9.65 | 4.57 | 10.02 | 11.02 |
| 20:26 | 3 | 23.1 | 42 | 68,873 | 0 | 20.62 | 0.93 | 46.4 | 58.96 | 10.47 | 2.86 | 8.46 | 9.3 |
| 20:25 | 3 | 23.1 | 41 | 68,888 | 0 | 20.3 | 0.84 | 29.6 | 66.07 | 10.17 | 2.86 | 8.52 | 9.37 |
| 20:24 | 3 | 23.2 | 42 | 68,912 | 0 | 21.12 | 0.88 | 37.46 | 60.61 | 10.32 | 2.86 | 9.28 | 10.21 |
| 20:23 | 3 | 23.2 | 42 | 68,910 | 0 | 22.15 | 0.96 | 43.94 | 62.81 | 10.73 | 3.71 | 8.49 | 9.34 |
| 20:21 | 3 | 23.3 | 41 | 68,904 | 0 | 19.24 | 1.05 | 29.94 | 62.63 | 10.21 | 2.86 | 7.79 | 8.57 |
| 20:20 | 3 | 23.4 | 41 | 68,902 | 0 | 20.09 | 1.07 | 31.54 | 66.47 | 10.55 | 2.86 | 9.34 | 10.27 |
| 20:19 | 3 | 23.5 | 41 | 68,900 | 0 | 17.96 | 1.2 | 31.47 | 73.67 | 10.3 | 3.71 | 9.34 | 10.28 |
| 20:15 | 3 | 23.6 | 41 | 68,888 | 0 | 21.51 | 1.01 | 43.34 | 61.51 | 10.73 | 3.71 | 9.36 | 10.29 |
| 20:14 | 3 | 23.7 | 40 | 68,904 | 0 | 20.16 | 1 | 25.74 | 79.28 | 10.86 | 2 | 7.8 | 8.58 |
| 20:13 | 3 | 23.7 | 40 | 68,900 | 0 | 20.5 | 0.93 | 38.84 | 72.52 | 10.5 | 3.71 | 8.61 | 9.47 |
| 20:12 | 3 | 23.8 | 40 | 68,892 | 0 | 20.58 | 0.95 | 26.55 | 79.02 | 11.46 | 2.86 | 8.62 | 9.48 |
| 20:11 | 3 | 23.9 | 40 | 68,912 | 0 | 18.43 | 0.92 | 24.37 | 73.25 | 10.87 | 3.71 | 9.4 | 10.34 |
| 20:10 | 3 | 23.9 | 40 | 68,906 | 0 | 15.89 | 0.92 | 22.56 | 72.27 | 10.52 | 3.71 | 8.63 | 9.49 |
| 20:09 | 3 | 24 | 40 | 68,902 | 0 | 19.17 | 0.9 | 19.64 | 80.59 | 11.15 | 2.86 | 8.63 | 9.5 |
| 20:08 | 3 | 24.1 | 40 | 68,926 | 0 | 19.01 | 0.88 | 23.61 | 76.73 | 11.41 | 2 | 7.85 | 8.64 |
| 20:07 | 3 | 24.1 | 39 | 68,922 | 0 | 20.36 | 0.89 | 29.51 | 72.07 | 11.16 | 2 | 7.87 | 8.65 |
| 20:06 | 3 | 24.2 | 39 | 68,920 | 0 | 20.36 | 0.9 | 38.94 | 74.83 | 11.25 | 2.86 | 8.65 | 9.52 |
| 20:05 | 3 | 24.2 | 39 | 68,918 | 0 | 17.31 | 0.94 | 22.18 | 73.14 | 10.66 | 2.86 | 8.67 | 9.54 |